TimeEST,TemperatureF,Dew PointF,Humidity,Sea Level PressureIn,VisibilityMPH,Wind Direction,Wind SpeedMPH,Gust SpeedMPH,PrecipitationIn,Events,Conditions,WindDirDegrees,DateUTC
12:51 AM,36.0,33.1,89,30.17,-9999.0,NE,11.5,-,0.09,Rain,Rain,50,2013-01-16 05:51:00
12:59 AM,35.6,33.8,93,30.16,-9999.0,ENE,9.2,-,0.02,Rain,Rain,60,2013-01-16 05:59:00
1:08 AM,35.6,33.8,93,30.15,-9999.0,ENE,9.2,-,N/A,Rain,Rain,60,2013-01-16 06:08:00
1:26 AM,35.6,33.8,93,30.13,-9999.0,ENE,11.5,-,0.08,Rain,Rain,60,2013-01-16 06:26:00
1:41 AM,35.6,33.8,93,30.16,-9999.0,NE,11.5,-,0.12,Rain,Heavy Rain,40,2013-01-16 06:41:00
1:51 AM,35.1,33.1,92,30.14,-9999.0,NE,13.8,-,0.16,Rain,Heavy Rain,40,2013-01-16 06:51:00
2:06 AM,35.6,33.8,93,30.14,-9999.0,NE,10.4,-,0.06,Rain,Rain,40,2013-01-16 07:06:00
2:20 AM,35.6,33.8,93,30.13,-9999.0,ENE,11.5,-,0.09,Rain,Rain,60,2013-01-16 07:20:00
2:27 AM,35.6,33.8,93,30.13,-9999.0,NE,11.5,-,0.12,Rain,Rain,50,2013-01-16 07:27:00
2:38 AM,35.6,33.8,93,30.12,-9999.0,ENE,13.8,-,0.14,Rain,Rain,60,2013-01-16 07:38:00
2:51 AM,35.6,33.8,93,30.13,-9999.0,NE,10.4,-,N/A,Rain,Rain,40,2013-01-16 07:51:00
2:58 AM,35.6,33.8,93,30.13,-9999.0,NNE,6.9,-,0.03,Rain,Heavy Rain,20,2013-01-16 07:58:00
3:16 AM,35.6,33.8,93,30.14,-9999.0,NE,9.2,18.4,0.11,Rain,Heavy Rain,40,2013-01-16 08:16:00
3:31 AM,35.6,33.8,93,30.12,-9999.0,NE,6.9,-,0.17,Rain,Heavy Rain,40,2013-01-16 08:31:00
3:46 AM,35.6,33.8,93,30.14,-9999.0,North,4.6,-,0.20,Rain,Light Rain,360,2013-01-16 08:46:00
4:28 AM,35.6,33.8,93,30.10,-9999.0,NE,5.8,-,0.06,Rain,Rain,50,2013-01-16 09:28:00
4:39 AM,35.6,33.8,93,30.10,-9999.0,NNE,5.8,-,N/A,Rain,Rain,30,2013-01-16 09:39:00
4:51 AM,35.1,33.1,92,30.09,-9999.0,NE,5.8,-,0.09,Rain,Light Rain,40,2013-01-16 09:51:00
5:51 AM,35.1,33.1,92,30.06,-9999.0,NE,8.1,-,0.00,Rain,Light Rain,50,2013-01-16 10:51:00
6:51 AM,35.6,33.8,93,30.07,5.0,ENE,5.8,-,N/A,Rain,Light Rain,60,2013-01-16 11:51:00
7:35 AM,35.6,33.8,93,30.05,5.0,ENE,8.1,-,0.02,Rain,Light Rain,70,2013-01-16 12:35:00
7:51 AM,36.0,34.0,93,30.04,5.0,NE,6.9,-,0.02,Rain,Light Rain,50,2013-01-16 12:51:00
8:20 AM,35.6,33.8,93,30.03,8.0,ENE,3.5,-,0.00,,Overcast,60,2013-01-16 13:20:00
8:51 AM,36.0,34.0,93,30.03,8.0,ENE,5.8,-,0.00,Rain,Light Rain,70,2013-01-16 13:51:00
9:51 AM,36.0,34.0,93,30.02,8.0,NW,3.5,-,0.05,Rain,Light Rain,320,2013-01-16 14:51:00
10:07 AM,35.6,35.6,100,30.00,4.0,Calm,Calm,-,0.01,Rain,Light Rain,0,2013-01-16 15:07:00
10:51 AM,37.0,37.0,100,30.02,4.0,NW,3.5,-,0.02,Rain,Light Rain,320,2013-01-16 15:51:00
10:58 AM,37.4,37.4,100,30.01,4.0,NW,3.5,-,0.00,Rain,Light Rain,310,2013-01-16 15:58:00
11:51 AM,37.9,37.0,97,29.99,4.0,WNW,6.9,-,0.00,,Overcast,290,2013-01-16 16:51:00
12:51 PM,37.9,35.1,89,29.88,4.0,SSE,8.1,-,N/A,,Overcast,160,2013-01-16 17:51:00
1:18 PM,37.4,35.6,93,29.85,4.0,South,12.7,-,N/A,,Overcast,170,2013-01-16 18:18:00
1:51 PM,37.9,36.0,93,29.92,3.0,West,10.4,20.7,N/A,,Overcast,280,2013-01-16 18:51:00
2:51 PM,37.9,37.0,97,29.94,-9999.0,NW,11.5,-,0.00,Rain,Light Rain,310,2013-01-16 19:51:00
3:16 PM,37.4,35.6,93,29.94,6.0,NW,10.4,-,0.00,,Overcast,320,2013-01-16 20:16:00
3:51 PM,37.9,35.1,89,29.95,6.0,WNW,9.2,-,0.00,,Overcast,290,2013-01-16 20:51:00
4:51 PM,37.9,35.1,89,29.95,6.0,SSW,3.5,-,N/A,,Mostly Cloudy,200,2013-01-16 21:51:00
5:51 PM,37.9,36.0,93,29.98,6.0,West,5.8,-,N/A,,Mostly Cloudy,270,2013-01-16 22:51:00
5:58 PM,37.4,35.6,93,29.97,6.0,West,5.8,-,N/A,,Scattered Clouds,280,2013-01-16 22:58:00
6:51 PM,37.9,36.0,93,29.98,10.0,WSW,4.6,-,N/A,,Overcast,250,2013-01-16 23:51:00
7:51 PM,37.9,35.1,89,29.98,10.0,WSW,5.8,-,N/A,,Partly Cloudy,250,2013-01-17 00:51:00
8:51 PM,37.9,36.0,93,30.00,10.0,WSW,3.5,-,N/A,,Mostly Cloudy,240,2013-01-17 01:51:00
9:51 PM,37.9,36.0,93,29.97,10.0,Calm,Calm,-,N/A,,Scattered Clouds,0,2013-01-17 02:51:00
10:51 PM,39.0,36.0,89,29.99,-9999.0,West,3.5,-,N/A,,Overcast,280,2013-01-17 03:51:00
11:51 PM,39.0,37.0,93,29.98,-9999.0,South,3.5,-,N/A,,Overcast,190,2013-01-17 04:51:00